aviador You're here:

LFOB Decoded Metar

BEAUVAIS in FRANCE
Report Time2017-09-24 12:00:00
UTC Time2017-09-24 12:19:20
Flight Rules vfr VFR
Wind120° at 08 kt
W.Decomp.*RWY 12: 8.0 kt HW 0.1 kt RCW
RWY 04: 1.3 kt HW 7.9 kt RCW
W.Rank120° ranks 25
Current wind is above 120° avg. (5.1)
Visibility9999 m
Phenomena:N/A
Clouds:N/A
Expected CloudBase > 4,000 ft AGL from Temp-Dew spread
CeilingNone
Temp21°C (ISA +7)
Dew Point11°C (53% RH)
AAT18.5°C
QNH1020 hPa
Density Alt1,093 ft
Elevation364 ft
Report Wrong Elevation
Raw Report
LFOB 241200Z AUTO 12008KT CAVOK 21/11 Q1020 NOSIG=

Extra information for LFOB:More info

Metar Taf Metar & Taf Last 4 Metars F.Rules Stats Wind Profile Meteogram Temp Stats Airport Information Weather charts Add Link Nearby VenuesMetar ALERT Operation Metar Decoded Social comments